sensor_id;sensor_type;location;lat;lon;timestamp;P1;durP1;ratioP1;P2;durP2;ratioP2
28353;SDS011;15603;50.878;8.036;2023-06-22T00:00:12;7.03;;;5.13;;
28353;SDS011;15603;50.878;8.036;2023-06-22T00:02:39;11.00;;;6.20;;
28353;SDS011;15603;50.878;8.036;2023-06-22T00:05:07;12.75;;;6.40;;
28353;SDS011;15603;50.878;8.036;2023-06-22T00:07:34;10.57;;;6.93;;
28353;SDS011;15603;50.878;8.036;2023-06-22T00:10:01;13.70;;;6.82;;
28353;SDS011;15603;50.878;8.036;2023-06-22T00:12:28;11.75;;;6.95;;
28353;SDS011;15603;50.878;8.036;2023-06-22T00:14:55;13.68;;;7.18;;
28353;SDS011;15603;50.878;8.036;2023-06-22T00:17:22;12.55;;;6.55;;
28353;SDS011;15603;50.878;8.036;2023-06-22T00:19:49;10.27;;;6.90;;
28353;SDS011;15603;50.878;8.036;2023-06-22T00:22:20;15.10;;;6.70;;
28353;SDS011;15603;50.878;8.036;2023-06-22T00:24:55;16.38;;;7.68;;
28353;SDS011;15603;50.878;8.036;2023-06-22T00:27:23;12.95;;;6.45;;
28353;SDS011;15603;50.878;8.036;2023-06-22T00:29:50;10.95;;;6.80;;
28353;SDS011;15603;50.878;8.036;2023-06-22T00:32:17;12.02;;;7.53;;
28353;SDS011;15603;50.878;8.036;2023-06-22T00:34:47;11.55;;;6.40;;
28353;SDS011;15603;50.878;8.036;2023-06-22T00:37:14;13.57;;;6.90;;
28353;SDS011;15603;50.878;8.036;2023-06-22T00:39:41;8.98;;;6.43;;
28353;SDS011;15603;50.878;8.036;2023-06-22T00:42:10;10.82;;;6.80;;
28353;SDS011;15603;50.878;8.036;2023-06-22T00:44:38;11.70;;;6.47;;
28353;SDS011;15603;50.878;8.036;2023-06-22T00:47:05;14.40;;;7.93;;
28353;SDS011;15603;50.878;8.036;2023-06-22T00:49:33;16.05;;;7.25;;
28353;SDS011;15603;50.878;8.036;2023-06-22T00:52:00;13.88;;;6.57;;
28353;SDS011;15603;50.878;8.036;2023-06-22T00:54:27;12.38;;;6.68;;
28353;SDS011;15603;50.878;8.036;2023-06-22T00:56:55;16.23;;;7.25;;
28353;SDS011;15603;50.878;8.036;2023-06-22T00:59:24;8.68;;;6.22;;
28353;SDS011;15603;50.878;8.036;2023-06-22T01:01:53;9.25;;;6.47;;
28353;SDS011;15603;50.878;8.036;2023-06-22T01:04:25;8.70;;;6.80;;
28353;SDS011;15603;50.878;8.036;2023-06-22T01:10:18;14.95;;;6.30;;
28353;SDS011;15603;50.878;8.036;2023-06-22T01:12:44;17.63;;;7.53;;
28353;SDS011;15603;50.878;8.036;2023-06-22T01:15:18;11.38;;;7.10;;
28353;SDS011;15603;50.878;8.036;2023-06-22T01:17:50;11.02;;;6.38;;
28353;SDS011;15603;50.878;8.036;2023-06-22T01:20:20;11.82;;;6.72;;
28353;SDS011;15603;50.878;8.036;2023-06-22T01:25:43;13.32;;;7.70;;
28353;SDS011;15603;50.878;8.036;2023-06-22T01:30:49;12.05;;;7.18;;
28353;SDS011;15603;50.878;8.036;2023-06-22T01:33:31;11.77;;;6.47;;
28353;SDS011;15603;50.878;8.036;2023-06-22T01:36:01;32.15;;;7.70;;
28353;SDS011;15603;50.878;8.036;2023-06-22T01:38:29;12.20;;;5.75;;
28353;SDS011;15603;50.878;8.036;2023-06-22T01:40:58;8.90;;;6.38;;
28353;SDS011;15603;50.878;8.036;2023-06-22T01:43:26;15.35;;;6.65;;
28353;SDS011;15603;50.878;8.036;2023-06-22T01:45:55;12.50;;;6.78;;
28353;SDS011;15603;50.878;8.036;2023-06-22T01:48:23;7.32;;;6.32;;
28353;SDS011;15603;50.878;8.036;2023-06-22T01:50:52;10.23;;;6.38;;
28353;SDS011;15603;50.878;8.036;2023-06-22T01:53:23;12.02;;;6.72;;
28353;SDS011;15603;50.878;8.036;2023-06-22T01:55:51;17.95;;;7.63;;
28353;SDS011;15603;50.878;8.036;2023-06-22T01:58:20;12.85;;;7.78;;
28353;SDS011;15603;50.878;8.036;2023-06-22T02:00:55;16.25;;;7.28;;
28353;SDS011;15603;50.878;8.036;2023-06-22T02:03:26;16.73;;;8.23;;
28353;SDS011;15603;50.878;8.036;2023-06-22T02:06:01;17.75;;;7.70;;
28353;SDS011;15603;50.878;8.036;2023-06-22T02:08:35;20.00;;;8.27;;
28353;SDS011;15603;50.878;8.036;2023-06-22T02:11:08;15.07;;;8.00;;
28353;SDS011;15603;50.878;8.036;2023-06-22T02:13:37;14.82;;;8.15;;
28353;SDS011;15603;50.878;8.036;2023-06-22T02:16:07;16.02;;;8.63;;
28353;SDS011;15603;50.878;8.036;2023-06-22T02:18:34;20.80;;;9.82;;
28353;SDS011;15603;50.878;8.036;2023-06-22T02:21:03;21.58;;;10.90;;
28353;SDS011;15603;50.878;8.036;2023-06-22T02:23:30;27.00;;;11.15;;
28353;SDS011;15603;50.878;8.036;2023-06-22T02:26:01;20.35;;;11.05;;
28353;SDS011;15603;50.878;8.036;2023-06-22T02:28:30;21.50;;;11.07;;
28353;SDS011;15603;50.878;8.036;2023-06-22T02:30:57;21.10;;;10.32;;
28353;SDS011;15603;50.878;8.036;2023-06-22T02:33:24;17.20;;;10.13;;
28353;SDS011;15603;50.878;8.036;2023-06-22T02:35:52;26.08;;;9.85;;
28353;SDS011;15603;50.878;8.036;2023-06-22T02:38:22;25.63;;;10.07;;
28353;SDS011;15603;50.878;8.036;2023-06-22T02:40:51;19.23;;;9.23;;
28353;SDS011;15603;50.878;8.036;2023-06-22T02:43:18;18.38;;;9.93;;
28353;SDS011;15603;50.878;8.036;2023-06-22T02:45:45;19.88;;;9.98;;
28353;SDS011;15603;50.878;8.036;2023-06-22T02:48:12;14.73;;;9.57;;
28353;SDS011;15603;50.878;8.036;2023-06-22T02:50:40;23.70;;;10.30;;
28353;SDS011;15603;50.878;8.036;2023-06-22T02:53:07;16.60;;;9.85;;
28353;SDS011;15603;50.878;8.036;2023-06-22T02:55:37;17.80;;;9.07;;
28353;SDS011;15603;50.878;8.036;2023-06-22T02:58:07;18.70;;;9.88;;
28353;SDS011;15603;50.878;8.036;2023-06-22T03:00:36;15.95;;;9.90;;
28353;SDS011;15603;50.878;8.036;2023-06-22T03:03:03;21.10;;;10.77;;
28353;SDS011;15603;50.878;8.036;2023-06-22T03:05:31;22.15;;;10.85;;
28353;SDS011;15603;50.878;8.036;2023-06-22T03:07:59;29.38;;;11.98;;
28353;SDS011;15603;50.878;8.036;2023-06-22T03:10:30;21.75;;;11.50;;
28353;SDS011;15603;50.878;8.036;2023-06-22T03:12:57;22.30;;;12.27;;
28353;SDS011;15603;50.878;8.036;2023-06-22T03:15:24;22.13;;;12.23;;
28353;SDS011;15603;50.878;8.036;2023-06-22T03:17:52;28.95;;;13.70;;
28353;SDS011;15603;50.878;8.036;2023-06-22T03:20:22;20.35;;;12.45;;
28353;SDS011;15603;50.878;8.036;2023-06-22T03:22:50;20.48;;;13.15;;
28353;SDS011;15603;50.878;8.036;2023-06-22T03:25:17;23.98;;;12.82;;
28353;SDS011;15603;50.878;8.036;2023-06-22T03:27:47;27.63;;;14.32;;
28353;SDS011;15603;50.878;8.036;2023-06-22T03:30:15;40.95;;;14.90;;
28353;SDS011;15603;50.878;8.036;2023-06-22T03:32:42;35.83;;;15.63;;
28353;SDS011;15603;50.878;8.036;2023-06-22T03:35:10;11.45;;;3.90;;
28353;SDS011;15603;50.878;8.036;2023-06-22T03:37:40;15.05;;;3.47;;
28353;SDS011;15603;50.878;8.036;2023-06-22T03:40:07;6.13;;;3.17;;
28353;SDS011;15603;50.878;8.036;2023-06-22T03:42:35;19.60;;;3.65;;
28353;SDS011;15603;50.878;8.036;2023-06-22T03:45:05;13.02;;;4.78;;
28353;SDS011;15603;50.878;8.036;2023-06-22T03:47:33;9.45;;;5.30;;
28353;SDS011;15603;50.878;8.036;2023-06-22T03:50:01;19.20;;;7.93;;
28353;SDS011;15603;50.878;8.036;2023-06-22T03:52:30;17.33;;;9.15;;
28353;SDS011;15603;50.878;8.036;2023-06-22T03:54:57;13.77;;;8.50;;
28353;SDS011;15603;50.878;8.036;2023-06-22T03:57:24;16.83;;;9.85;;
28353;SDS011;15603;50.878;8.036;2023-06-22T03:59:52;21.08;;;10.75;;
28353;SDS011;15603;50.878;8.036;2023-06-22T04:02:21;12.75;;;9.07;;
28353;SDS011;15603;50.878;8.036;2023-06-22T04:04:48;13.85;;;9.50;;
28353;SDS011;15603;50.878;8.036;2023-06-22T04:07:19;17.40;;;7.57;;
28353;SDS011;15603;50.878;8.036;2023-06-22T04:09:46;11.15;;;7.18;;
28353;SDS011;15603;50.878;8.036;2023-06-22T04:12:13;12.45;;;8.95;;
28353;SDS011;15603;50.878;8.036;2023-06-22T04:14:40;19.58;;;11.15;;
28353;SDS011;15603;50.878;8.036;2023-06-22T04:17:08;15.45;;;9.48;;
28353;SDS011;15603;50.878;8.036;2023-06-22T04:19:35;14.55;;;10.45;;
28353;SDS011;15603;50.878;8.036;2023-06-22T04:22:02;17.38;;;11.07;;
28353;SDS011;15603;50.878;8.036;2023-06-22T04:24:29;18.40;;;11.13;;
28353;SDS011;15603;50.878;8.036;2023-06-22T04:26:56;19.17;;;11.43;;
28353;SDS011;15603;50.878;8.036;2023-06-22T04:29:23;20.27;;;11.35;;
28353;SDS011;15603;50.878;8.036;2023-06-22T04:31:58;23.73;;;14.13;;
28353;SDS011;15603;50.878;8.036;2023-06-22T04:34:29;28.60;;;15.32;;
28353;SDS011;15603;50.878;8.036;2023-06-22T04:36:56;20.48;;;13.88;;
28353;SDS011;15603;50.878;8.036;2023-06-22T04:39:24;24.80;;;14.60;;
28353;SDS011;15603;50.878;8.036;2023-06-22T04:41:51;22.23;;;14.68;;
28353;SDS011;15603;50.878;8.036;2023-06-22T04:44:18;21.50;;;14.45;;
28353;SDS011;15603;50.878;8.036;2023-06-22T04:46:52;21.52;;;12.13;;
28353;SDS011;15603;50.878;8.036;2023-06-22T04:52:00;15.75;;;8.40;;
28353;SDS011;15603;50.878;8.036;2023-06-22T04:54:28;13.15;;;8.25;;
28353;SDS011;15603;50.878;8.036;2023-06-22T04:56:56;18.80;;;9.52;;
28353;SDS011;15603;50.878;8.036;2023-06-22T04:59:23;17.30;;;9.23;;
28353;SDS011;15603;50.878;8.036;2023-06-22T05:01:58;18.38;;;9.30;;
28353;SDS011;15603;50.878;8.036;2023-06-22T05:04:26;16.83;;;9.20;;
28353;SDS011;15603;50.878;8.036;2023-06-22T05:06:55;14.13;;;8.75;;
28353;SDS011;15603;50.878;8.036;2023-06-22T05:09:22;18.80;;;9.95;;
28353;SDS011;15603;50.878;8.036;2023-06-22T05:11:53;15.32;;;9.82;;
28353;SDS011;15603;50.878;8.036;2023-06-22T05:14:21;21.27;;;10.57;;
28353;SDS011;15603;50.878;8.036;2023-06-22T05:16:48;20.08;;;10.90;;
28353;SDS011;15603;50.878;8.036;2023-06-22T05:19:16;17.75;;;10.35;;
28353;SDS011;15603;50.878;8.036;2023-06-22T05:21:43;15.90;;;10.77;;
28353;SDS011;15603;50.878;8.036;2023-06-22T05:24:10;17.30;;;10.90;;
28353;SDS011;15603;50.878;8.036;2023-06-22T05:26:37;15.77;;;11.02;;
28353;SDS011;15603;50.878;8.036;2023-06-22T05:29:04;11.93;;;9.70;;
28353;SDS011;15603;50.878;8.036;2023-06-22T05:31:31;12.90;;;9.75;;
28353;SDS011;15603;50.878;8.036;2023-06-22T05:33:58;15.07;;;10.10;;
28353;SDS011;15603;50.878;8.036;2023-06-22T05:36:26;13.93;;;10.52;;
28353;SDS011;15603;50.878;8.036;2023-06-22T05:38:55;13.82;;;9.95;;
28353;SDS011;15603;50.878;8.036;2023-06-22T05:41:23;17.45;;;10.13;;
28353;SDS011;15603;50.878;8.036;2023-06-22T05:43:50;13.65;;;9.50;;
28353;SDS011;15603;50.878;8.036;2023-06-22T05:46:18;15.45;;;10.43;;
28353;SDS011;15603;50.878;8.036;2023-06-22T05:48:46;16.13;;;10.18;;
28353;SDS011;15603;50.878;8.036;2023-06-22T05:51:13;12.10;;;8.68;;
28353;SDS011;15603;50.878;8.036;2023-06-22T05:53:40;15.43;;;9.20;;
28353;SDS011;15603;50.878;8.036;2023-06-22T05:56:07;13.07;;;8.45;;
28353;SDS011;15603;50.878;8.036;2023-06-22T05:58:35;11.73;;;8.65;;
28353;SDS011;15603;50.878;8.036;2023-06-22T06:01:02;17.98;;;10.48;;
28353;SDS011;15603;50.878;8.036;2023-06-22T06:03:29;16.58;;;10.85;;
28353;SDS011;15603;50.878;8.036;2023-06-22T06:05:56;17.05;;;10.32;;
28353;SDS011;15603;50.878;8.036;2023-06-22T06:08:23;15.52;;;11.18;;
28353;SDS011;15603;50.878;8.036;2023-06-22T06:10:51;11.25;;;9.48;;
28353;SDS011;15603;50.878;8.036;2023-06-22T06:13:20;18.13;;;10.00;;
28353;SDS011;15603;50.878;8.036;2023-06-22T06:15:47;9.82;;;7.18;;
28353;SDS011;15603;50.878;8.036;2023-06-22T06:18:14;12.70;;;6.57;;
28353;SDS011;15603;50.878;8.036;2023-06-22T06:20:41;11.43;;;6.90;;
28353;SDS011;15603;50.878;8.036;2023-06-22T06:23:08;12.68;;;7.30;;
28353;SDS011;15603;50.878;8.036;2023-06-22T06:25:35;12.10;;;7.35;;
28353;SDS011;15603;50.878;8.036;2023-06-22T06:28:02;11.75;;;6.63;;
28353;SDS011;15603;50.878;8.036;2023-06-22T06:30:30;10.75;;;6.13;;
28353;SDS011;15603;50.878;8.036;2023-06-22T06:32:57;10.05;;;6.45;;
28353;SDS011;15603;50.878;8.036;2023-06-22T06:35:25;9.85;;;6.93;;
28353;SDS011;15603;50.878;8.036;2023-06-22T06:37:52;12.02;;;7.45;;
28353;SDS011;15603;50.878;8.036;2023-06-22T06:40:19;9.30;;;6.75;;
28353;SDS011;15603;50.878;8.036;2023-06-22T06:42:48;14.52;;;6.50;;
28353;SDS011;15603;50.878;8.036;2023-06-22T06:45:17;11.95;;;6.43;;
28353;SDS011;15603;50.878;8.036;2023-06-22T06:47:46;8.80;;;5.95;;
28353;SDS011;15603;50.878;8.036;2023-06-22T06:50:13;8.25;;;6.13;;
28353;SDS011;15603;50.878;8.036;2023-06-22T06:52:40;9.15;;;6.32;;
28353;SDS011;15603;50.878;8.036;2023-06-22T06:55:09;20.38;;;6.13;;
28353;SDS011;15603;50.878;8.036;2023-06-22T06:57:41;10.35;;;5.88;;
28353;SDS011;15603;50.878;8.036;2023-06-22T07:00:09;11.65;;;5.70;;
28353;SDS011;15603;50.878;8.036;2023-06-22T07:02:41;12.25;;;6.32;;
28353;SDS011;15603;50.878;8.036;2023-06-22T07:05:10;13.68;;;5.97;;
28353;SDS011;15603;50.878;8.036;2023-06-22T07:07:38;10.55;;;5.28;;
28353;SDS011;15603;50.878;8.036;2023-06-22T07:10:06;9.45;;;6.72;;
28353;SDS011;15603;50.878;8.036;2023-06-22T07:12:33;8.55;;;5.68;;
28353;SDS011;15603;50.878;8.036;2023-06-22T07:15:09;8.43;;;6.57;;
28353;SDS011;15603;50.878;8.036;2023-06-22T07:17:39;8.73;;;6.50;;
28353;SDS011;15603;50.878;8.036;2023-06-22T07:20:10;14.55;;;6.32;;
28353;SDS011;15603;50.878;8.036;2023-06-22T07:22:39;9.20;;;6.38;;
28353;SDS011;15603;50.878;8.036;2023-06-22T07:25:07;12.40;;;6.68;;
28353;SDS011;15603;50.878;8.036;2023-06-22T07:27:45;8.48;;;6.95;;
28353;SDS011;15603;50.878;8.036;2023-06-22T07:30:15;11.45;;;6.75;;
28353;SDS011;15603;50.878;8.036;2023-06-22T07:32:42;11.93;;;6.40;;
28353;SDS011;15603;50.878;8.036;2023-06-22T07:35:09;11.77;;;7.00;;
28353;SDS011;15603;50.878;8.036;2023-06-22T07:37:37;8.68;;;7.28;;
28353;SDS011;15603;50.878;8.036;2023-06-22T07:40:04;10.45;;;7.35;;
28353;SDS011;15603;50.878;8.036;2023-06-22T07:42:33;11.02;;;7.40;;
28353;SDS011;15603;50.878;8.036;2023-06-22T07:45:01;9.18;;;7.15;;
28353;SDS011;15603;50.878;8.036;2023-06-22T07:47:30;11.98;;;7.63;;
28353;SDS011;15603;50.878;8.036;2023-06-22T07:49:57;15.00;;;7.90;;
28353;SDS011;15603;50.878;8.036;2023-06-22T07:52:28;11.63;;;6.70;;
28353;SDS011;15603;50.878;8.036;2023-06-22T07:54:55;11.40;;;7.57;;
28353;SDS011;15603;50.878;8.036;2023-06-22T07:57:23;11.07;;;7.15;;
28353;SDS011;15603;50.878;8.036;2023-06-22T07:59:50;13.43;;;7.38;;
28353;SDS011;15603;50.878;8.036;2023-06-22T08:02:17;11.38;;;6.88;;
28353;SDS011;15603;50.878;8.036;2023-06-22T08:04:44;10.15;;;7.45;;
28353;SDS011;15603;50.878;8.036;2023-06-22T08:07:12;11.10;;;7.60;;
28353;SDS011;15603;50.878;8.036;2023-06-22T08:09:42;10.05;;;7.30;;
28353;SDS011;15603;50.878;8.036;2023-06-22T08:12:13;12.63;;;6.40;;
28353;SDS011;15603;50.878;8.036;2023-06-22T08:14:42;8.30;;;6.25;;
28353;SDS011;15603;50.878;8.036;2023-06-22T08:17:10;10.43;;;6.72;;
28353;SDS011;15603;50.878;8.036;2023-06-22T08:19:38;11.95;;;6.50;;
28353;SDS011;15603;50.878;8.036;2023-06-22T08:22:06;8.63;;;6.28;;
28353;SDS011;15603;50.878;8.036;2023-06-22T08:24:33;8.93;;;6.05;;
28353;SDS011;15603;50.878;8.036;2023-06-22T08:27:00;7.53;;;6.50;;
28353;SDS011;15603;50.878;8.036;2023-06-22T08:29:27;10.57;;;6.05;;
28353;SDS011;15603;50.878;8.036;2023-06-22T08:31:54;9.82;;;5.90;;
28353;SDS011;15603;50.878;8.036;2023-06-22T08:34:21;7.57;;;5.97;;
28353;SDS011;15603;50.878;8.036;2023-06-22T08:36:49;7.22;;;5.70;;
28353;SDS011;15603;50.878;8.036;2023-06-22T08:39:19;14.63;;;6.95;;
28353;SDS011;15603;50.878;8.036;2023-06-22T08:41:47;9.07;;;5.70;;
28353;SDS011;15603;50.878;8.036;2023-06-22T08:44:18;22.52;;;6.70;;
28353;SDS011;15603;50.878;8.036;2023-06-22T08:46:45;8.90;;;6.03;;
28353;SDS011;15603;50.878;8.036;2023-06-22T08:49:12;10.68;;;5.78;;
28353;SDS011;15603;50.878;8.036;2023-06-22T08:51:39;9.88;;;5.95;;
28353;SDS011;15603;50.878;8.036;2023-06-22T08:54:06;8.82;;;5.25;;
28353;SDS011;15603;50.878;8.036;2023-06-22T08:56:34;13.82;;;6.00;;
28353;SDS011;15603;50.878;8.036;2023-06-22T08:59:01;6.63;;;5.05;;
28353;SDS011;15603;50.878;8.036;2023-06-22T09:01:28;8.57;;;5.55;;
28353;SDS011;15603;50.878;8.036;2023-06-22T09:03:55;10.20;;;5.95;;
28353;SDS011;15603;50.878;8.036;2023-06-22T09:06:24;9.82;;;5.78;;
28353;SDS011;15603;50.878;8.036;2023-06-22T09:08:52;11.77;;;5.03;;
28353;SDS011;15603;50.878;8.036;2023-06-22T09:11:19;12.00;;;5.97;;
28353;SDS011;15603;50.878;8.036;2023-06-22T09:13:46;9.73;;;5.57;;
28353;SDS011;15603;50.878;8.036;2023-06-22T09:16:13;8.80;;;5.43;;
28353;SDS011;15603;50.878;8.036;2023-06-22T09:18:40;7.72;;;4.95;;
28353;SDS011;15603;50.878;8.036;2023-06-22T09:21:08;9.20;;;5.60;;
28353;SDS011;15603;50.878;8.036;2023-06-22T09:23:35;8.55;;;5.82;;
28353;SDS011;15603;50.878;8.036;2023-06-22T09:26:03;8.57;;;4.40;;
28353;SDS011;15603;50.878;8.036;2023-06-22T09:28:31;7.18;;;4.90;;
28353;SDS011;15603;50.878;8.036;2023-06-22T09:30:58;9.23;;;5.88;;
28353;SDS011;15603;50.878;8.036;2023-06-22T09:33:26;7.95;;;4.82;;
28353;SDS011;15603;50.878;8.036;2023-06-22T09:35:53;7.60;;;5.25;;
28353;SDS011;15603;50.878;8.036;2023-06-22T09:38:20;14.48;;;5.63;;
28353;SDS011;15603;50.878;8.036;2023-06-22T09:40:47;8.40;;;5.15;;
28353;SDS011;15603;50.878;8.036;2023-06-22T09:43:14;6.47;;;4.63;;
28353;SDS011;15603;50.878;8.036;2023-06-22T09:45:42;6.25;;;4.95;;
28353;SDS011;15603;50.878;8.036;2023-06-22T09:48:09;7.38;;;4.70;;
28353;SDS011;15603;50.878;8.036;2023-06-22T09:50:36;9.52;;;5.18;;
28353;SDS011;15603;50.878;8.036;2023-06-22T09:53:04;8.93;;;4.97;;
28353;SDS011;15603;50.878;8.036;2023-06-22T09:55:31;7.38;;;4.72;;
28353;SDS011;15603;50.878;8.036;2023-06-22T09:57:58;9.63;;;4.85;;
28353;SDS011;15603;50.878;8.036;2023-06-22T10:00:25;9.35;;;5.18;;
28353;SDS011;15603;50.878;8.036;2023-06-22T10:02:53;9.88;;;5.15;;
28353;SDS011;15603;50.878;8.036;2023-06-22T10:05:26;8.65;;;4.80;;
28353;SDS011;15603;50.878;8.036;2023-06-22T10:07:54;8.05;;;4.80;;
28353;SDS011;15603;50.878;8.036;2023-06-22T10:10:21;6.82;;;4.70;;
28353;SDS011;15603;50.878;8.036;2023-06-22T10:12:54;10.45;;;4.45;;
28353;SDS011;15603;50.878;8.036;2023-06-22T10:15:23;10.23;;;6.25;;
28353;SDS011;15603;50.878;8.036;2023-06-22T10:17:50;10.63;;;5.38;;
28353;SDS011;15603;50.878;8.036;2023-06-22T10:20:18;8.48;;;5.97;;
28353;SDS011;15603;50.878;8.036;2023-06-22T10:22:45;7.68;;;5.32;;
28353;SDS011;15603;50.878;8.036;2023-06-22T10:25:12;10.98;;;6.45;;
28353;SDS011;15603;50.878;8.036;2023-06-22T10:27:40;12.63;;;6.85;;
28353;SDS011;15603;50.878;8.036;2023-06-22T10:30:08;12.27;;;6.93;;
28353;SDS011;15603;50.878;8.036;2023-06-22T10:32:39;11.52;;;6.80;;
28353;SDS011;15603;50.878;8.036;2023-06-22T10:35:07;11.02;;;5.53;;
28353;SDS011;15603;50.878;8.036;2023-06-22T10:37:35;9.68;;;5.47;;
28353;SDS011;15603;50.878;8.036;2023-06-22T10:40:02;10.25;;;4.82;;
28353;SDS011;15603;50.878;8.036;2023-06-22T10:42:30;6.55;;;4.93;;
28353;SDS011;15603;50.878;8.036;2023-06-22T10:44:57;13.40;;;5.00;;
28353;SDS011;15603;50.878;8.036;2023-06-22T10:47:24;8.68;;;5.63;;
28353;SDS011;15603;50.878;8.036;2023-06-22T10:49:52;16.38;;;5.78;;
28353;SDS011;15603;50.878;8.036;2023-06-22T10:52:19;10.45;;;4.80;;
28353;SDS011;15603;50.878;8.036;2023-06-22T10:54:46;9.23;;;5.43;;
28353;SDS011;15603;50.878;8.036;2023-06-22T10:57:13;10.80;;;5.90;;
28353;SDS011;15603;50.878;8.036;2023-06-22T10:59:40;9.18;;;5.30;;
28353;SDS011;15603;50.878;8.036;2023-06-22T11:02:07;12.02;;;5.18;;
28353;SDS011;15603;50.878;8.036;2023-06-22T11:04:34;8.70;;;5.35;;
28353;SDS011;15603;50.878;8.036;2023-06-22T11:07:02;7.35;;;5.25;;
28353;SDS011;15603;50.878;8.036;2023-06-22T11:09:29;10.20;;;5.95;;
28353;SDS011;15603;50.878;8.036;2023-06-22T11:11:56;8.07;;;6.18;;
28353;SDS011;15603;50.878;8.036;2023-06-22T11:14:26;6.65;;;5.65;;
28353;SDS011;15603;50.878;8.036;2023-06-22T11:16:53;9.35;;;5.85;;
28353;SDS011;15603;50.878;8.036;2023-06-22T11:19:20;9.65;;;5.72;;
28353;SDS011;15603;50.878;8.036;2023-06-22T11:21:47;11.25;;;6.57;;
28353;SDS011;15603;50.878;8.036;2023-06-22T11:24:14;17.05;;;7.35;;
28353;SDS011;15603;50.878;8.036;2023-06-22T11:26:42;12.15;;;6.55;;
28353;SDS011;15603;50.878;8.036;2023-06-22T11:29:10;14.38;;;7.00;;
28353;SDS011;15603;50.878;8.036;2023-06-22T11:31:53;11.23;;;6.38;;
28353;SDS011;15603;50.878;8.036;2023-06-22T11:34:20;12.35;;;7.63;;
28353;SDS011;15603;50.878;8.036;2023-06-22T11:36:47;14.70;;;6.75;;
28353;SDS011;15603;50.878;8.036;2023-06-22T11:39:15;9.45;;;5.65;;
28353;SDS011;15603;50.878;8.036;2023-06-22T11:41:42;12.55;;;7.43;;
28353;SDS011;15603;50.878;8.036;2023-06-22T11:44:09;13.68;;;7.50;;
28353;SDS011;15603;50.878;8.036;2023-06-22T11:46:36;10.63;;;6.50;;
28353;SDS011;15603;50.878;8.036;2023-06-22T11:49:03;13.00;;;7.13;;
28353;SDS011;15603;50.878;8.036;2023-06-22T11:51:30;15.00;;;7.32;;
28353;SDS011;15603;50.878;8.036;2023-06-22T11:53:58;14.32;;;6.90;;
28353;SDS011;15603;50.878;8.036;2023-06-22T11:56:25;9.50;;;6.43;;
28353;SDS011;15603;50.878;8.036;2023-06-22T11:58:54;11.27;;;7.15;;
28353;SDS011;15603;50.878;8.036;2023-06-22T12:01:21;16.85;;;6.38;;
28353;SDS011;15603;50.878;8.036;2023-06-22T12:03:48;9.60;;;7.03;;
28353;SDS011;15603;50.878;8.036;2023-06-22T12:06:16;8.73;;;6.30;;
28353;SDS011;15603;50.878;8.036;2023-06-22T12:08:43;14.63;;;6.57;;
28353;SDS011;15603;50.878;8.036;2023-06-22T12:11:10;13.23;;;7.15;;
28353;SDS011;15603;50.878;8.036;2023-06-22T12:13:37;8.20;;;6.60;;
28353;SDS011;15603;50.878;8.036;2023-06-22T12:16:04;9.02;;;6.63;;
28353;SDS011;15603;50.878;8.036;2023-06-22T12:18:32;9.05;;;6.78;;
28353;SDS011;15603;50.878;8.036;2023-06-22T12:20:59;11.65;;;6.82;;
28353;SDS011;15603;50.878;8.036;2023-06-22T12:23:26;10.95;;;7.10;;
28353;SDS011;15603;50.878;8.036;2023-06-22T12:25:53;11.45;;;7.10;;
28353;SDS011;15603;50.878;8.036;2023-06-22T12:28:20;8.73;;;6.50;;
28353;SDS011;15603;50.878;8.036;2023-06-22T12:30:47;14.05;;;7.32;;
28353;SDS011;15603;50.878;8.036;2023-06-22T12:33:15;12.00;;;7.28;;
28353;SDS011;15603;50.878;8.036;2023-06-22T12:35:42;11.27;;;6.68;;
28353;SDS011;15603;50.878;8.036;2023-06-22T12:38:09;15.10;;;6.32;;
28353;SDS011;15603;50.878;8.036;2023-06-22T12:40:36;10.75;;;6.72;;
28353;SDS011;15603;50.878;8.036;2023-06-22T12:43:03;8.75;;;6.30;;
28353;SDS011;15603;50.878;8.036;2023-06-22T12:45:30;9.23;;;6.70;;
28353;SDS011;15603;50.878;8.036;2023-06-22T12:48:00;13.05;;;5.38;;
28353;SDS011;15603;50.878;8.036;2023-06-22T12:50:28;10.23;;;5.50;;
28353;SDS011;15603;50.878;8.036;2023-06-22T12:52:55;8.40;;;5.07;;
28353;SDS011;15603;50.878;8.036;2023-06-22T12:55:22;7.53;;;3.40;;
28353;SDS011;15603;50.878;8.036;2023-06-22T12:57:50;7.80;;;3.45;;
28353;SDS011;15603;50.878;8.036;2023-06-22T13:00:17;4.15;;;2.35;;
28353;SDS011;15603;50.878;8.036;2023-06-22T13:02:44;6.45;;;2.53;;
28353;SDS011;15603;50.878;8.036;2023-06-22T13:05:11;5.80;;;2.50;;
28353;SDS011;15603;50.878;8.036;2023-06-22T13:07:38;5.13;;;2.92;;
28353;SDS011;15603;50.878;8.036;2023-06-22T13:10:05;7.53;;;2.38;;
28353;SDS011;15603;50.878;8.036;2023-06-22T13:12:33;6.03;;;2.85;;
28353;SDS011;15603;50.878;8.036;2023-06-22T13:15:00;6.07;;;2.75;;
28353;SDS011;15603;50.878;8.036;2023-06-22T13:17:29;5.45;;;3.00;;
28353;SDS011;15603;50.878;8.036;2023-06-22T13:19:56;9.13;;;3.35;;
28353;SDS011;15603;50.878;8.036;2023-06-22T13:22:30;12.50;;;3.33;;
28353;SDS011;15603;50.878;8.036;2023-06-22T13:24:59;3.92;;;2.92;;
28353;SDS011;15603;50.878;8.036;2023-06-22T13:27:27;6.90;;;3.03;;
28353;SDS011;15603;50.878;8.036;2023-06-22T13:29:54;6.00;;;3.08;;
28353;SDS011;15603;50.878;8.036;2023-06-22T13:32:21;3.60;;;2.72;;
28353;SDS011;15603;50.878;8.036;2023-06-22T13:34:48;10.52;;;3.08;;
28353;SDS011;15603;50.878;8.036;2023-06-22T13:37:15;8.38;;;2.88;;
28353;SDS011;15603;50.878;8.036;2023-06-22T13:39:43;8.32;;;2.60;;
28353;SDS011;15603;50.878;8.036;2023-06-22T13:42:11;9.88;;;2.60;;
28353;SDS011;15603;50.878;8.036;2023-06-22T13:44:38;7.28;;;2.88;;
28353;SDS011;15603;50.878;8.036;2023-06-22T13:47:05;6.43;;;2.60;;
28353;SDS011;15603;50.878;8.036;2023-06-22T13:49:33;5.28;;;3.05;;
28353;SDS011;15603;50.878;8.036;2023-06-22T13:52:00;5.90;;;3.53;;
28353;SDS011;15603;50.878;8.036;2023-06-22T13:54:27;7.07;;;3.08;;
28353;SDS011;15603;50.878;8.036;2023-06-22T13:56:57;4.53;;;3.00;;
28353;SDS011;15603;50.878;8.036;2023-06-22T13:59:24;8.30;;;3.13;;
28353;SDS011;15603;50.878;8.036;2023-06-22T14:01:53;5.75;;;3.50;;
28353;SDS011;15603;50.878;8.036;2023-06-22T14:04:21;14.95;;;3.58;;
28353;SDS011;15603;50.878;8.036;2023-06-22T14:06:50;9.20;;;2.90;;
28353;SDS011;15603;50.878;8.036;2023-06-22T14:09:17;6.25;;;3.63;;
28353;SDS011;15603;50.878;8.036;2023-06-22T14:11:44;5.70;;;3.03;;
28353;SDS011;15603;50.878;8.036;2023-06-22T14:14:11;4.97;;;3.90;;
28353;SDS011;15603;50.878;8.036;2023-06-22T14:16:38;13.82;;;4.93;;
28353;SDS011;15603;50.878;8.036;2023-06-22T14:19:05;9.93;;;4.57;;
28353;SDS011;15603;50.878;8.036;2023-06-22T14:21:33;7.78;;;3.72;;
28353;SDS011;15603;50.878;8.036;2023-06-22T14:24:00;10.10;;;3.90;;
28353;SDS011;15603;50.878;8.036;2023-06-22T14:26:27;9.45;;;3.75;;
28353;SDS011;15603;50.878;8.036;2023-06-22T14:28:54;8.38;;;3.63;;
28353;SDS011;15603;50.878;8.036;2023-06-22T14:31:21;8.88;;;4.45;;
28353;SDS011;15603;50.878;8.036;2023-06-22T14:33:48;5.05;;;3.63;;
28353;SDS011;15603;50.878;8.036;2023-06-22T14:36:16;10.45;;;4.50;;
28353;SDS011;15603;50.878;8.036;2023-06-22T14:38:45;14.38;;;4.60;;
28353;SDS011;15603;50.878;8.036;2023-06-22T14:41:13;7.78;;;3.85;;
28353;SDS011;15603;50.878;8.036;2023-06-22T14:43:47;6.07;;;3.67;;
28353;SDS011;15603;50.878;8.036;2023-06-22T14:46:17;6.60;;;3.83;;
28353;SDS011;15603;50.878;8.036;2023-06-22T14:48:45;10.90;;;4.57;;
28353;SDS011;15603;50.878;8.036;2023-06-22T14:51:12;15.77;;;6.07;;
28353;SDS011;15603;50.878;8.036;2023-06-22T14:53:46;12.57;;;6.25;;